Time;durP1;ratioP1;P1;durP2;ratioP2;P2;SDS_P1;SDS_P2;PMS_P1;PMS_P2;Temp;Humidity;BMP_temperature;BMP_pressure;BME280_temperature;BME280_humidity;BME280_pressure;Samples;Min_cycle;Max_cycle;Signal;HPM_P1;HPM_P2
2021/03/17 00:00:48;;;;;;;16.13;3.85;;;;;;;;;;5028310;28;20068;-50
2021/03/17 00:03:15;;;;;;;23.60;4.53;;;;;;;;;;4991126;28;20470;-50
2021/03/17 00:05:43;;;;;;;19.80;3.50;;;;;;;;;;5020901;28;20437;-49
2021/03/17 00:08:10;;;;;;;16.10;3.75;;;;;;;;;;5026855;28;20113;-48
2021/03/17 00:10:39;;;;;;;19.05;4.05;;;;;;;;;;5012287;28;20076;-50
2021/03/17 00:13:06;;;;;;;15.10;4.15;;;;;;;;;;5027005;28;20109;-51
2021/03/17 00:15:35;;;;;;;15.00;4.22;;;;;;;;;;5029232;28;20049;-50
2021/03/17 00:18:02;;;;;;;15.10;3.42;;;;;;;;;;5026401;28;20022;-49
2021/03/17 00:20:30;;;;;;;14.45;3.38;;;;;;;;;;5028022;28;20021;-53
2021/03/17 00:22:57;;;;;;;18.75;4.28;;;;;;;;;;5025704;28;20025;-51
2021/03/17 00:25:43;;;;;;;16.15;3.60;;;;;;;;;;5023701;28;20018;-53
2021/03/17 00:28:10;;;;;;;14.10;3.72;;;;;;;;;;5027337;28;20108;-53
2021/03/17 00:30:38;;;;;;;16.02;4.53;;;;;;;;;;5031610;28;20044;-52
2021/03/17 00:33:08;;;;;;;17.08;3.72;;;;;;;;;;5023733;28;20547;-54
2021/03/17 00:35:35;;;;;;;21.50;3.97;;;;;;;;;;5021514;28;20032;-52
2021/03/17 00:38:02;;;;;;;20.38;4.28;;;;;;;;;;5024253;28;20021;-51
2021/03/17 00:40:29;;;;;;;20.42;4.75;;;;;;;;;;5023146;28;20385;-49
2021/03/17 00:42:56;;;;;;;12.88;3.67;;;;;;;;;;5029724;28;20040;-53
2021/03/17 00:45:23;;;;;;;18.67;4.05;;;;;;;;;;5029342;28;20101;-51
2021/03/17 00:47:51;;;;;;;16.95;3.70;;;;;;;;;;5025484;28;20503;-55
2021/03/17 00:50:18;;;;;;;22.85;3.85;;;;;;;;;;5027514;28;20060;-51
2021/03/17 00:52:45;;;;;;;17.67;3.70;;;;;;;;;;5024322;28;20037;-50
2021/03/17 00:55:13;;;;;;;19.13;4.28;;;;;;;;;;5022595;28;20087;-51
2021/03/17 00:57:41;;;;;;;15.20;3.63;;;;;;;;;;5022803;28;20033;-54
2021/03/17 01:00:09;;;;;;;15.90;4.22;;;;;;;;;;5020086;28;20041;-55
2021/03/17 01:02:36;;;;;;;19.95;3.65;;;;;;;;;;5028284;28;20107;-49
2021/03/17 01:05:03;;;;;;;14.55;3.60;;;;;;;;;;5007165;28;20502;-49
2021/03/17 01:07:30;;;;;;;16.33;3.65;;;;;;;;;;5023992;28;20065;-51
2021/03/17 01:09:58;;;;;;;14.55;3.50;;;;;;;;;;5022490;28;20033;-51
2021/03/17 01:12:25;;;;;;;12.60;3.72;;;;;;;;;;5022432;28;20040;-57
2021/03/17 01:14:52;;;;;;;22.60;3.50;;;;;;;;;;5021661;28;20465;-56
2021/03/17 01:17:19;;;;;;;20.08;3.70;;;;;;;;;;5018724;28;20478;-58
2021/03/17 01:19:46;;;;;;;21.58;3.97;;;;;;;;;;5013022;28;20488;-57
2021/03/17 01:22:13;;;;;;;14.75;3.38;;;;;;;;;;5028519;28;20376;-59
2021/03/17 01:24:40;;;;;;;18.83;2.97;;;;;;;;;;5015678;28;20481;-55
2021/03/17 01:27:07;;;;;;;18.40;3.58;;;;;;;;;;5016782;28;20025;-53
2021/03/17 01:29:34;;;;;;;13.27;3.33;;;;;;;;;;5030326;28;20028;-54
2021/03/17 01:32:01;;;;;;;16.08;3.88;;;;;;;;;;5015280;28;20030;-54
2021/03/17 01:34:28;;;;;;;17.40;3.53;;;;;;;;;;5028160;28;20101;-54
2021/03/17 01:36:55;;;;;;;11.73;2.58;;;;;;;;;;5026531;28;20029;-53
2021/03/17 01:39:22;;;;;;;14.32;3.03;;;;;;;;;;5029308;28;20025;-52
2021/03/17 01:41:49;;;;;;;32.78;3.33;;;;;;;;;;5027691;28;20448;-55
2021/03/17 01:44:16;;;;;;;12.90;3.30;;;;;;;;;;5024546;28;20013;-56
2021/03/17 01:46:43;;;;;;;13.20;3.10;;;;;;;;;;5027633;28;20029;-51
2021/03/17 01:49:10;;;;;;;13.27;2.85;;;;;;;;;;5026572;28;20505;-55
2021/03/17 01:51:39;;;;;;;11.82;3.10;;;;;;;;;;5025318;28;20045;-55
2021/03/17 01:54:06;;;;;;;12.95;2.75;;;;;;;;;;5027559;28;20142;-58
2021/03/17 01:56:33;;;;;;;11.80;2.70;;;;;;;;;;5029148;28;20033;-52
2021/03/17 01:59:00;;;;;;;16.52;2.50;;;;;;;;;;5029264;28;20037;-52
2021/03/17 02:01:28;;;;;;;11.00;2.50;;;;;;;;;;5027518;28;20013;-51
2021/03/17 02:03:55;;;;;;;11.88;2.55;;;;;;;;;;5020480;28;20026;-55
2021/03/17 02:06:22;;;;;;;14.05;2.40;;;;;;;;;;5032963;28;20044;-53
2021/03/17 02:08:49;;;;;;;12.98;2.70;;;;;;;;;;5033930;28;20034;-56
2021/03/17 02:11:16;;;;;;;11.18;2.97;;;;;;;;;;5016845;28;20373;-53
2021/03/17 02:13:58;;;;;;;18.48;2.70;;;;;;;;;;5034056;28;20048;-56
2021/03/17 02:16:25;;;;;;;10.27;2.50;;;;;;;;;;5025879;28;20473;-50
2021/03/17 02:18:55;;;;;;;15.05;2.97;;;;;;;;;;5033668;28;20029;-55
2021/03/17 02:21:40;;;;;;;14.90;2.78;;;;;;;;;;5033294;28;20405;-53
2021/03/17 02:24:07;;;;;;;21.42;3.20;;;;;;;;;;5034012;28;20022;-54
2021/03/17 02:26:49;;;;;;;14.98;2.95;;;;;;;;;;5033393;28;20032;-51
2021/03/17 02:29:16;;;;;;;21.90;3.05;;;;;;;;;;5034096;28;20028;-52
2021/03/17 02:31:55;;;;;;;19.13;2.63;;;;;;;;;;5033744;28;20040;-56
2021/03/17 02:34:29;;;;;;;18.55;3.13;;;;;;;;;;5033087;28;20041;-52
2021/03/17 02:37:09;;;;;;;11.45;2.88;;;;;;;;;;5033592;28;20104;-51
2021/03/17 02:39:47;;;;;;;11.38;2.60;;;;;;;;;;5034259;28;20025;-53
2021/03/17 02:42:16;;;;;;;10.95;2.70;;;;;;;;;;5034104;28;20025;-52
2021/03/17 02:44:49;;;;;;;18.63;3.17;;;;;;;;;;5034131;28;20025;-53
2021/03/17 02:47:17;;;;;;;14.60;2.70;;;;;;;;;;5034261;28;20029;-51
2021/03/17 02:49:46;;;;;;;16.90;2.85;;;;;;;;;;5034094;28;20501;-53
2021/03/17 02:52:14;;;;;;;18.85;3.33;;;;;;;;;;5033779;28;20045;-56
2021/03/17 02:54:44;;;;;;;18.15;4.25;;;;;;;;;;5033852;28;20083;-52
2021/03/17 02:57:21;;;;;;;12.98;3.00;;;;;;;;;;5033954;28;20102;-51
2021/03/17 02:59:56;;;;;;;21.25;3.15;;;;;;;;;;5033958;28;20018;-56
2021/03/17 03:02:24;;;;;;;16.65;2.88;;;;;;;;;;5033854;28;20103;-52
2021/03/17 03:04:52;;;;;;;19.52;3.22;;;;;;;;;;5034051;28;20036;-54
2021/03/17 03:07:19;;;;;;;16.35;3.45;;;;;;;;;;5034019;28;20032;-54
2021/03/17 03:09:47;;;;;;;14.15;3.17;;;;;;;;;;5033654;28;20025;-54
2021/03/17 03:12:14;;;;;;;15.05;3.35;;;;;;;;;;5033518;28;20116;-54
2021/03/17 03:14:41;;;;;;;14.05;3.63;;;;;;;;;;5033866;28;20453;-55
2021/03/17 03:17:09;;;;;;;18.75;3.75;;;;;;;;;;5033437;28;20481;-55
2021/03/17 03:19:39;;;;;;;12.75;3.00;;;;;;;;;;5033284;28;20031;-52
2021/03/17 03:22:07;;;;;;;15.15;3.40;;;;;;;;;;5033412;28;20057;-55
2021/03/17 03:24:34;;;;;;;18.35;3.88;;;;;;;;;;5033336;28;20025;-51
2021/03/17 03:27:01;;;;;;;13.68;3.25;;;;;;;;;;5033278;28;20076;-55
2021/03/17 03:29:29;;;;;;;16.05;3.33;;;;;;;;;;5033519;28;20438;-52
2021/03/17 03:31:56;;;;;;;12.93;3.25;;;;;;;;;;5024881;28;20500;-51
2021/03/17 03:34:23;;;;;;;15.85;3.30;;;;;;;;;;5032688;28;20719;-54
2021/03/17 03:36:50;;;;;;;15.05;3.65;;;;;;;;;;5032245;28;20056;-54
2021/03/17 03:39:18;;;;;;;14.90;3.72;;;;;;;;;;5032773;28;20018;-52
2021/03/17 03:41:45;;;;;;;18.52;4.18;;;;;;;;;;5032229;28;20052;-55
2021/03/17 03:44:12;;;;;;;15.60;3.30;;;;;;;;;;5032659;28;20022;-54
2021/03/17 03:46:39;;;;;;;14.05;3.53;;;;;;;;;;5032864;28;20026;-56
2021/03/17 03:49:07;;;;;;;14.25;4.43;;;;;;;;;;5031643;28;20046;-55
2021/03/17 03:51:38;;;;;;;15.13;3.75;;;;;;;;;;5032466;28;20030;-55
2021/03/17 03:54:14;;;;;;;12.40;3.50;;;;;;;;;;5032911;28;20079;-56
2021/03/17 03:56:50;;;;;;;16.90;3.83;;;;;;;;;;5032909;28;20036;-55
2021/03/17 03:59:21;;;;;;;16.63;3.70;;;;;;;;;;5032842;28;20033;-54
2021/03/17 04:02:00;;;;;;;16.00;3.60;;;;;;;;;;5032773;28;20032;-52
2021/03/17 04:04:32;;;;;;;16.58;4.00;;;;;;;;;;5032640;28;20078;-55
2021/03/17 04:07:02;;;;;;;14.52;3.53;;;;;;;;;;5032845;28;20593;-55
2021/03/17 04:09:49;;;;;;;15.70;3.72;;;;;;;;;;5032809;28;20017;-55
2021/03/17 04:12:17;;;;;;;17.80;3.92;;;;;;;;;;5032480;28;20044;-53
2021/03/17 04:14:46;;;;;;;16.85;3.72;;;;;;;;;;5032313;28;20030;-55
2021/03/17 04:17:21;;;;;;;14.65;3.97;;;;;;;;;;5032355;28;20030;-57
2021/03/17 04:19:50;;;;;;;15.95;4.10;;;;;;;;;;5032735;28;20032;-55
2021/03/17 04:22:19;;;;;;;16.27;3.97;;;;;;;;;;5032351;28;20032;-50
2021/03/17 04:24:46;;;;;;;19.88;4.10;;;;;;;;;;5032051;28;20030;-53
2021/03/17 04:27:15;;;;;;;18.65;3.85;;;;;;;;;;5032538;28;20037;-56
2021/03/17 04:29:43;;;;;;;17.90;4.72;;;;;;;;;;5032633;28;20025;-54
2021/03/17 04:32:11;;;;;;;13.30;3.95;;;;;;;;;;5032107;28;20511;-56
2021/03/17 04:34:38;;;;;;;17.00;3.63;;;;;;;;;;5032176;28;20091;-54
2021/03/17 04:37:05;;;;;;;17.48;4.38;;;;;;;;;;5032111;28;20109;-56
2021/03/17 04:39:32;;;;;;;17.98;4.13;;;;;;;;;;5032008;28;20103;-53
2021/03/17 04:42:00;;;;;;;12.15;3.53;;;;;;;;;;5032031;28;20108;-54
2021/03/17 04:44:27;;;;;;;14.77;4.18;;;;;;;;;;5032200;28;20507;-52
2021/03/17 04:46:55;;;;;;;19.75;4.07;;;;;;;;;;5022695;28;20098;-52
2021/03/17 04:49:22;;;;;;;15.20;3.78;;;;;;;;;;5023212;28;20038;-52
2021/03/17 04:51:50;;;;;;;16.38;4.78;;;;;;;;;;5031228;28;20035;-55
2021/03/17 04:54:17;;;;;;;16.77;3.30;;;;;;;;;;5031046;28;20017;-54
2021/03/17 04:56:45;;;;;;;14.90;4.85;;;;;;;;;;5030895;28;20017;-53
2021/03/17 04:59:22;;;;;;;18.38;3.97;;;;;;;;;;5031993;28;20021;-55
2021/03/17 05:01:51;;;;;;;15.18;3.70;;;;;;;;;;5032100;28;20022;-51
2021/03/17 05:04:19;;;;;;;16.20;4.22;;;;;;;;;;5031821;28;20124;-51
2021/03/17 05:06:46;;;;;;;19.60;3.70;;;;;;;;;;5031902;28;20033;-53
2021/03/17 05:09:15;;;;;;;15.40;3.97;;;;;;;;;;5031840;28;20056;-50
2021/03/17 05:11:43;;;;;;;14.80;3.67;;;;;;;;;;5031633;28;20029;-53
2021/03/17 05:14:11;;;;;;;15.57;4.00;;;;;;;;;;5031623;28;20087;-53
2021/03/17 05:16:38;;;;;;;14.45;3.72;;;;;;;;;;5013922;28;20028;-53
2021/03/17 05:19:06;;;;;;;16.00;4.13;;;;;;;;;;5014120;28;20169;-53
2021/03/17 05:21:35;;;;;;;16.48;4.05;;;;;;;;;;5031501;28;20029;-52
2021/03/17 05:24:02;;;;;;;17.00;4.03;;;;;;;;;;5014056;28;20025;-56
2021/03/17 05:26:30;;;;;;;13.13;3.45;;;;;;;;;;5031478;28;20029;-53
2021/03/17 05:28:58;;;;;;;18.63;4.80;;;;;;;;;;5031767;28;20477;-51
2021/03/17 05:31:26;;;;;;;15.82;4.15;;;;;;;;;;5031619;28;20045;-54
2021/03/17 05:33:53;;;;;;;19.10;4.05;;;;;;;;;;5031611;28;20059;-52
2021/03/17 05:36:20;;;;;;;17.58;4.10;;;;;;;;;;5031576;28;20029;-56
2021/03/17 05:38:47;;;;;;;14.88;4.40;;;;;;;;;;5035165;28;20025;-52
2021/03/17 05:41:15;;;;;;;13.80;4.75;;;;;;;;;;5035524;28;20389;-54
2021/03/17 05:43:42;;;;;;;16.08;3.75;;;;;;;;;;5035291;28;20049;-55
2021/03/17 05:46:10;;;;;;;14.95;4.22;;;;;;;;;;5035277;28;20029;-54
2021/03/17 05:48:37;;;;;;;15.65;4.15;;;;;;;;;;5035416;28;20489;-54
2021/03/17 05:51:04;;;;;;;14.25;3.80;;;;;;;;;;5035209;28;20037;-52
2021/03/17 05:53:31;;;;;;;17.45;3.58;;;;;;;;;;5035044;28;20048;-51
2021/03/17 05:56:02;;;;;;;13.57;3.28;;;;;;;;;;5035184;28;20026;-55
2021/03/17 05:58:29;;;;;;;15.07;3.80;;;;;;;;;;5034778;28;20035;-54
2021/03/17 06:00:57;;;;;;;17.75;4.78;;;;;;;;;;5035286;28;20022;-55
2021/03/17 06:03:24;;;;;;;12.98;3.78;;;;;;;;;;5035092;28;20057;-51
2021/03/17 06:05:52;;;;;;;13.75;3.20;;;;;;;;;;5035059;28;20041;-55
2021/03/17 06:08:25;;;;;;;19.67;4.20;;;;;;;;;;5034677;28;20440;-54
2021/03/17 06:10:53;;;;;;;14.52;3.42;;;;;;;;;;5034866;28;20045;-53
2021/03/17 06:13:22;;;;;;;14.75;3.55;;;;;;;;;;5034967;28;20034;-54
2021/03/17 06:16:04;;;;;;;19.67;4.15;;;;;;;;;;5034656;28;20017;-54
2021/03/17 06:18:34;;;;;;;13.38;3.53;;;;;;;;;;5034687;28;20037;-51
2021/03/17 06:21:02;;;;;;;14.48;3.78;;;;;;;;;;5034468;28;20025;-52
2021/03/17 06:23:32;;;;;;;15.68;3.70;;;;;;;;;;5034828;28;20021;-54
2021/03/17 06:26:00;;;;;;;18.73;4.10;;;;;;;;;;5034524;28;20025;-56
2021/03/17 06:28:27;;;;;;;11.25;3.40;;;;;;;;;;5034432;28;20025;-52
2021/03/17 06:30:55;;;;;;;18.05;3.65;;;;;;;;;;5034512;28;20052;-51
2021/03/17 06:33:22;;;;;;;17.58;4.35;;;;;;;;;;5034166;28;20037;-53
2021/03/17 06:35:49;;;;;;;13.02;3.70;;;;;;;;;;5034375;28;20021;-52
2021/03/17 06:38:23;;;;;;;13.82;3.85;;;;;;;;;;5034411;28;20026;-52
2021/03/17 06:40:58;;;;;;;10.15;3.35;;;;;;;;;;5034280;28;20021;-51
2021/03/17 06:43:36;;;;;;;17.05;3.85;;;;;;;;;;5034296;28;20082;-52
2021/03/17 06:46:04;;;;;;;17.55;4.28;;;;;;;;;;5033911;28;20095;-50
2021/03/17 06:48:32;;;;;;;12.40;4.20;;;;;;;;;;5033501;28;20049;-51
2021/03/17 06:51:12;;;;;;;15.50;3.78;;;;;;;;;;5034151;28;20025;-53
2021/03/17 06:53:41;;;;;;;15.07;3.83;;;;;;;;;;5034240;28;20037;-54
2021/03/17 06:56:27;;;;;;;12.85;3.88;;;;;;;;;;5033954;28;20032;-53
2021/03/17 06:58:54;;;;;;;12.82;3.45;;;;;;;;;;5034163;28;20033;-53
2021/03/17 07:01:36;;;;;;;14.90;3.83;;;;;;;;;;5033822;28;20018;-50
2021/03/17 07:04:07;;;;;;;16.35;4.30;;;;;;;;;;5033924;28;20163;-54
2021/03/17 07:06:35;;;;;;;15.90;4.15;;;;;;;;;;5033828;28;20025;-52
2021/03/17 07:09:15;;;;;;;14.63;3.80;;;;;;;;;;5033663;28;20032;-50
2021/03/17 07:11:42;;;;;;;15.32;3.40;;;;;;;;;;5033717;28;20033;-51
2021/03/17 07:14:09;;;;;;;15.05;4.43;;;;;;;;;;5033579;28;20114;-50
2021/03/17 07:16:38;;;;;;;15.00;3.95;;;;;;;;;;5033796;28;20033;-52
2021/03/17 07:19:06;;;;;;;15.77;3.30;;;;;;;;;;5033460;28;20033;-52
2021/03/17 07:21:33;;;;;;;24.00;5.20;;;;;;;;;;5033368;28;20025;-52
2021/03/17 07:24:00;;;;;;;17.00;4.50;;;;;;;;;;5033430;28;20032;-52
2021/03/17 07:26:27;;;;;;;18.92;4.40;;;;;;;;;;5015582;28;20036;-54
2021/03/17 07:29:12;;;;;;;15.10;3.80;;;;;;;;;;5033283;28;20110;-54
2021/03/17 07:31:42;;;;;;;13.35;3.60;;;;;;;;;;5033079;28;20032;-54
2021/03/17 07:34:09;;;;;;;14.70;3.42;;;;;;;;;;5033131;28;20552;-54
2021/03/17 07:36:43;;;;;;;15.43;4.00;;;;;;;;;;5033250;28;20029;-52
2021/03/17 07:39:11;;;;;;;19.15;4.22;;;;;;;;;;5033251;28;20037;-52
2021/03/17 07:41:39;;;;;;;14.98;4.05;;;;;;;;;;5033004;28;20512;-55
2021/03/17 07:44:08;;;;;;;17.30;4.20;;;;;;;;;;5033136;28;20432;-52
2021/03/17 07:46:36;;;;;;;16.50;4.18;;;;;;;;;;5032912;28;20040;-54
2021/03/17 07:49:04;;;;;;;14.57;4.20;;;;;;;;;;5032682;28;20493;-53
2021/03/17 07:51:32;;;;;;;16.52;4.40;;;;;;;;;;5033111;28;20041;-53
2021/03/17 07:53:59;;;;;;;15.18;3.70;;;;;;;;;;5032900;28;20037;-54
2021/03/17 07:56:26;;;;;;;15.30;3.97;;;;;;;;;;5032807;28;20121;-51
2021/03/17 07:58:54;;;;;;;15.27;3.88;;;;;;;;;;5032678;28;20029;-55
2021/03/17 08:01:22;;;;;;;17.80;3.90;;;;;;;;;;5032145;28;20108;-55
2021/03/17 08:03:50;;;;;;;16.70;3.92;;;;;;;;;;5032516;28;20714;-55
2021/03/17 08:06:25;;;;;;;16.52;4.28;;;;;;;;;;5032618;28;20025;-54
2021/03/17 08:08:56;;;;;;;16.27;3.72;;;;;;;;;;5032860;28;20026;-53
2021/03/17 08:11:24;;;;;;;13.38;3.67;;;;;;;;;;5032671;28;20021;-55
2021/03/17 08:13:52;;;;;;;18.88;4.72;;;;;;;;;;5032526;28;20079;-55
2021/03/17 08:16:23;;;;;;;16.23;4.07;;;;;;;;;;5032477;28;20409;-53
2021/03/17 08:18:51;;;;;;;16.05;4.22;;;;;;;;;;5015257;28;20025;-53
2021/03/17 08:21:41;;;;;;;14.35;4.18;;;;;;;;;;5032360;28;20160;-54
2021/03/17 08:24:09;;;;;;;17.42;4.22;;;;;;;;;;5022178;28;20469;-54
2021/03/17 08:26:36;;;;;;;15.77;4.63;;;;;;;;;;5032203;28;20028;-55
2021/03/17 08:29:03;;;;;;;18.05;4.28;;;;;;;;;;5032250;28;20017;-55
2021/03/17 08:31:39;;;;;;;15.00;4.22;;;;;;;;;;5032476;28;20025;-55
2021/03/17 08:34:22;;;;;;;18.90;4.60;;;;;;;;;;5032223;28;20112;-55
2021/03/17 08:36:50;;;;;;;12.10;3.42;;;;;;;;;;5032128;28;20147;-55
2021/03/17 08:39:32;;;;;;;14.43;3.80;;;;;;;;;;5030929;28;20116;-57
2021/03/17 08:42:17;;;;;;;16.88;4.70;;;;;;;;;;5032237;28;20025;-54
2021/03/17 08:44:45;;;;;;;17.63;4.03;;;;;;;;;;5032277;28;20109;-56
2021/03/17 08:47:29;;;;;;;14.85;4.03;;;;;;;;;;5032042;28;20022;-54
2021/03/17 08:49:57;;;;;;;17.85;4.63;;;;;;;;;;5031787;28;20568;-54
2021/03/17 08:52:48;;;;;;;16.75;4.00;;;;;;;;;;5031892;28;20026;-55
2021/03/17 08:55:17;;;;;;;15.50;3.80;;;;;;;;;;5032053;28;20025;-56
2021/03/17 08:58:05;;;;;;;18.98;4.28;;;;;;;;;;5031916;28;20504;-56
2021/03/17 09:00:48;;;;;;;15.05;3.97;;;;;;;;;;5031942;28;20025;-54
2021/03/17 09:03:50;;;;;;;15.57;3.95;;;;;;;;;;5031931;28;20033;-52
2021/03/17 09:06:17;;;;;;;11.05;3.50;;;;;;;;;;5031645;28;20034;-53
2021/03/17 09:08:52;;;;;;;13.38;4.43;;;;;;;;;;5031659;28;20022;-55
2021/03/17 09:11:31;;;;;;;19.05;4.30;;;;;;;;;;5033533;28;20432;-56
2021/03/17 09:14:02;;;;;;;17.38;4.10;;;;;;;;;;5036074;28;20535;-58
2021/03/17 09:16:30;;;;;;;17.85;3.97;;;;;;;;;;5035713;28;20347;-54
2021/03/17 09:19:17;;;;;;;15.35;4.55;;;;;;;;;;5035874;28;20108;-55
2021/03/17 09:21:45;;;;;;;16.80;4.63;;;;;;;;;;5035791;28;20032;-50
2021/03/17 09:24:31;;;;;;;17.48;4.57;;;;;;;;;;5035694;28;20071;-55
2021/03/17 09:27:08;;;;;;;16.10;3.67;;;;;;;;;;5035769;28;20030;-55
2021/03/17 09:29:35;;;;;;;18.90;4.63;;;;;;;;;;5035764;28;20444;-53
2021/03/17 09:32:03;;;;;;;17.33;4.50;;;;;;;;;;5035366;28;20092;-54
2021/03/17 09:34:31;;;;;;;14.82;3.92;;;;;;;;;;5035513;28;20112;-54
2021/03/17 09:37:01;;;;;;;18.15;3.78;;;;;;;;;;5032824;28;20017;-51
2021/03/17 09:39:28;;;;;;;17.20;4.93;;;;;;;;;;5024275;28;20022;-55
2021/03/17 09:41:55;;;;;;;14.75;4.07;;;;;;;;;;4999034;28;20026;-51
2021/03/17 09:44:23;;;;;;;12.77;3.75;;;;;;;;;;5035164;28;20465;-49
2021/03/17 09:46:55;;;;;;;18.02;4.10;;;;;;;;;;5035189;28;20084;-51
2021/03/17 09:49:26;;;;;;;12.77;3.88;;;;;;;;;;5035148;28;20124;-52
2021/03/17 09:51:55;;;;;;;14.35;4.28;;;;;;;;;;5034966;28;20100;-50
2021/03/17 09:54:24;;;;;;;14.65;4.05;;;;;;;;;;5035188;28;20384;-52
2021/03/17 09:56:51;;;;;;;13.68;3.83;;;;;;;;;;5034993;28;20041;-50
2021/03/17 09:59:29;;;;;;;10.63;3.45;;;;;;;;;;5034404;28;20033;-54
2021/03/17 10:01:59;;;;;;;14.00;3.42;;;;;;;;;;5034924;28;20060;-53
2021/03/17 10:04:27;;;;;;;12.68;3.85;;;;;;;;;;5034873;28;20731;-51
2021/03/17 10:06:54;;;;;;;13.25;4.22;;;;;;;;;;5034972;28;20030;-51
2021/03/17 10:09:29;;;;;;;14.25;3.97;;;;;;;;;;5034844;28;20083;-51
2021/03/17 10:12:01;;;;;;;16.15;4.10;;;;;;;;;;5034865;28;20428;-55
2021/03/17 10:14:28;;;;;;;14.40;3.85;;;;;;;;;;5035049;28;20052;-56
2021/03/17 10:16:56;;;;;;;13.25;3.70;;;;;;;;;;5034496;28;20032;-51
2021/03/17 10:19:26;;;;;;;13.10;3.42;;;;;;;;;;5034645;28;20389;-54
2021/03/17 10:21:56;;;;;;;12.27;3.38;;;;;;;;;;5016973;28;20485;-57
2021/03/17 10:24:43;;;;;;;14.55;3.45;;;;;;;;;;5033952;28;20029;-55
2021/03/17 10:27:15;;;;;;;13.65;3.85;;;;;;;;;;5034561;28;20580;-57
2021/03/17 10:29:42;;;;;;;14.82;4.53;;;;;;;;;;5034433;28;20040;-57
2021/03/17 10:32:10;;;;;;;13.82;4.03;;;;;;;;;;5033883;28;20555;-52
2021/03/17 10:34:40;;;;;;;17.05;4.35;;;;;;;;;;5034622;28;20104;-55
2021/03/17 10:37:11;;;;;;;14.52;3.80;;;;;;;;;;5034178;28;20551;-55
2021/03/17 10:39:39;;;;;;;11.00;3.47;;;;;;;;;;5034255;28;20068;-57
2021/03/17 10:42:17;;;;;;;15.05;4.15;;;;;;;;;;5034226;28;20025;-57
2021/03/17 10:44:44;;;;;;;15.18;4.03;;;;;;;;;;5034417;28;20052;-53
2021/03/17 10:47:12;;;;;;;15.05;3.95;;;;;;;;;;5034265;28;20029;-57
2021/03/17 10:49:45;;;;;;;12.65;3.38;;;;;;;;;;5033845;28;20041;-54
2021/03/17 10:52:13;;;;;;;15.85;4.25;;;;;;;;;;5032499;28;20060;-50
2021/03/17 10:54:50;;;;;;;13.35;3.97;;;;;;;;;;5033964;28;20037;-54
2021/03/17 10:57:24;;;;;;;14.32;3.75;;;;;;;;;;5034074;28;20076;-52
2021/03/17 10:59:51;;;;;;;13.27;3.55;;;;;;;;;;5033827;28;20365;-55
2021/03/17 11:02:26;;;;;;;16.38;3.50;;;;;;;;;;5033994;28;20026;-54
2021/03/17 11:05:08;;;;;;;12.30;3.40;;;;;;;;;;5033880;28;20026;-54
2021/03/17 11:07:56;;;;;;;11.98;3.47;;;;;;;;;;5021554;28;20033;-54
2021/03/17 11:10:43;;;;;;;14.63;3.75;;;;;;;;;;5025078;28;20540;-58
2021/03/17 11:13:10;;;;;;;17.63;4.70;;;;;;;;;;5033348;28;20041;-55
2021/03/17 11:15:42;;;;;;;23.40;3.60;;;;;;;;;;5033804;28;20028;-56
2021/03/17 11:18:09;;;;;;;15.85;3.20;;;;;;;;;;5033198;28;20048;-55
2021/03/17 11:20:43;;;;;;;14.50;3.63;;;;;;;;;;5033659;28;20366;-58
2021/03/17 11:23:20;;;;;;;16.27;4.03;;;;;;;;;;5033411;28;20021;-59
2021/03/17 11:25:48;;;;;;;12.40;3.20;;;;;;;;;;5033436;28;20068;-59
2021/03/17 11:28:16;;;;;;;11.15;3.13;;;;;;;;;;5033474;28;20025;-58
2021/03/17 11:30:44;;;;;;;15.25;3.92;;;;;;;;;;5033573;28;20024;-58
2021/03/17 11:33:14;;;;;;;13.23;3.15;;;;;;;;;;5033104;28;20042;-57
2021/03/17 11:35:42;;;;;;;11.98;3.10;;;;;;;;;;5031782;28;20052;-56
2021/03/17 11:38:09;;;;;;;13.30;3.20;;;;;;;;;;5032597;28;20453;-58
2021/03/17 11:40:36;;;;;;;12.23;3.80;;;;;;;;;;5013607;28;20056;-55
2021/03/17 11:43:08;;;;;;;12.43;3.00;;;;;;;;;;4995450;28;20467;-56
2021/03/17 11:45:35;;;;;;;16.00;3.45;;;;;;;;;;5013384;28;20026;-59
2021/03/17 11:48:02;;;;;;;13.80;3.65;;;;;;;;;;5013399;28;20080;-55
2021/03/17 11:50:29;;;;;;;16.83;3.70;;;;;;;;;;5012910;28;20033;-51
2021/03/17 11:52:56;;;;;;;13.27;3.58;;;;;;;;;;5013095;28;20033;-50
2021/03/17 11:55:23;;;;;;;13.65;4.43;;;;;;;;;;5013252;28;20405;-52
2021/03/17 11:57:50;;;;;;;11.15;3.05;;;;;;;;;;5013015;28;20080;-52
2021/03/17 12:00:18;;;;;;;10.00;2.92;;;;;;;;;;5013088;28;20532;-56
2021/03/17 12:02:45;;;;;;;12.20;3.40;;;;;;;;;;5013176;28;20036;-56
2021/03/17 12:05:12;;;;;;;12.88;3.45;;;;;;;;;;5012836;28;20048;-48
2021/03/17 12:07:39;;;;;;;13.68;3.22;;;;;;;;;;5023258;28;20077;-49
2021/03/17 12:10:07;;;;;;;13.63;3.42;;;;;;;;;;5032760;28;20028;-54
2021/03/17 12:12:34;;;;;;;10.93;3.25;;;;;;;;;;5032201;28;20033;-52
2021/03/17 12:15:02;;;;;;;11.45;3.13;;;;;;;;;;5032413;28;20481;-56
2021/03/17 12:17:29;;;;;;;8.00;2.83;;;;;;;;;;5032531;28;20033;-51
2021/03/17 12:19:56;;;;;;;14.70;4.13;;;;;;;;;;5032157;28;20029;-51
2021/03/17 12:22:23;;;;;;;17.13;3.92;;;;;;;;;;5032298;28;20470;-50
2021/03/17 12:24:50;;;;;;;11.20;3.10;;;;;;;;;;5032552;28;20473;-56
2021/03/17 12:27:17;;;;;;;12.45;3.10;;;;;;;;;;5032292;28;20017;-49
2021/03/17 12:29:44;;;;;;;12.60;3.15;;;;;;;;;;5032213;28;20370;-56
2021/03/17 12:32:11;;;;;;;12.20;3.03;;;;;;;;;;5032125;28;20033;-55
2021/03/17 12:34:38;;;;;;;8.88;2.60;;;;;;;;;;5032179;28;20079;-56
2021/03/17 12:37:05;;;;;;;12.18;2.97;;;;;;;;;;5032221;28;20048;-49
2021/03/17 12:39:32;;;;;;;14.40;3.67;;;;;;;;;;5032077;28;20355;-54
2021/03/17 12:41:59;;;;;;;11.75;3.17;;;;;;;;;;5031937;28;20022;-56
2021/03/17 12:44:26;;;;;;;13.00;3.22;;;;;;;;;;5029235;28;20536;-58
2021/03/17 12:46:53;;;;;;;13.25;3.03;;;;;;;;;;5029690;28;20033;-62
2021/03/17 12:49:20;;;;;;;11.95;2.83;;;;;;;;;;5030069;28;20057;-56
2021/03/17 12:51:47;;;;;;;9.43;2.47;;;;;;;;;;5030519;28;20377;-55
2021/03/17 12:54:14;;;;;;;12.13;3.15;;;;;;;;;;5031488;28;20043;-54
2021/03/17 12:56:41;;;;;;;14.85;3.22;;;;;;;;;;5031847;28;20049;-55
2021/03/17 12:59:08;;;;;;;21.02;4.05;;;;;;;;;;5031272;28;20116;-51
2021/03/17 13:01:35;;;;;;;13.43;2.90;;;;;;;;;;5032044;28;20071;-50
2021/03/17 13:04:02;;;;;;;13.95;2.92;;;;;;;;;;5032005;28;20049;-52
2021/03/17 13:06:29;;;;;;;13.32;3.17;;;;;;;;;;5032010;28;20034;-49
2021/03/17 13:08:56;;;;;;;11.68;2.60;;;;;;;;;;5031815;28;20025;-52
2021/03/17 13:11:23;;;;;;;12.05;3.40;;;;;;;;;;5031759;28;20097;-51
2021/03/17 13:13:50;;;;;;;13.20;3.13;;;;;;;;;;5028571;28;20044;-50
2021/03/17 13:16:17;;;;;;;13.13;3.00;;;;;;;;;;5027024;28;20022;-55
2021/03/17 13:18:44;;;;;;;12.65;3.25;;;;;;;;;;5018001;28;20504;-57
2021/03/17 13:21:13;;;;;;;14.23;2.85;;;;;;;;;;5014214;28;20132;-58
2021/03/17 13:23:40;;;;;;;18.10;2.83;;;;;;;;;;5016173;28;20033;-61
2021/03/17 13:26:07;;;;;;;12.52;3.08;;;;;;;;;;5014448;28;20219;-56
2021/03/17 13:28:34;;;;;;;8.90;2.88;;;;;;;;;;5018262;28;20030;-58
2021/03/17 13:31:00;;;;;;;11.68;2.88;;;;;;;;;;5015446;28;20018;-57
2021/03/17 13:33:27;;;;;;;11.05;3.00;;;;;;;;;;5013442;28;20119;-57
2021/03/17 13:35:54;;;;;;;15.70;3.47;;;;;;;;;;5016994;28;20017;-58
2021/03/17 13:38:22;;;;;;;18.45;3.13;;;;;;;;;;5017638;28;20026;-59
2021/03/17 13:40:50;;;;;;;12.40;2.80;;;;;;;;;;5031199;28;20022;-57
2021/03/17 13:43:17;;;;;;;13.23;2.60;;;;;;;;;;5023002;28;20030;-56
2021/03/17 13:45:44;;;;;;;10.35;2.60;;;;;;;;;;5026151;28;20025;-57
2021/03/17 13:48:12;;;;;;;16.25;3.88;;;;;;;;;;5020549;28;20644;-57
2021/03/17 13:50:40;;;;;;;12.25;3.08;;;;;;;;;;5018329;28;20021;-57
2021/03/17 13:53:07;;;;;;;14.43;3.63;;;;;;;;;;5014806;28;20034;-58
2021/03/17 13:55:34;;;;;;;15.18;3.15;;;;;;;;;;5023895;28;20037;-54
2021/03/17 13:58:02;;;;;;;17.92;3.38;;;;;;;;;;5018893;28;20040;-54
2021/03/17 14:00:29;;;;;;;18.73;2.78;;;;;;;;;;5023226;28;20049;-60
2021/03/17 14:02:56;;;;;;;20.27;3.20;;;;;;;;;;5020446;28;20022;-57
2021/03/17 14:05:23;;;;;;;16.92;3.40;;;;;;;;;;5007087;28;20424;-59
2021/03/17 14:07:50;;;;;;;13.98;3.40;;;;;;;;;;5027891;28;20026;-59
2021/03/17 14:10:19;;;;;;;26.15;4.13;;;;;;;;;;5025608;28;20475;-55
2021/03/17 14:12:46;;;;;;;20.38;3.60;;;;;;;;;;5023735;28;20034;-56
2021/03/17 14:15:15;;;;;;;25.20;3.45;;;;;;;;;;5028884;28;20032;-57
2021/03/17 14:17:42;;;;;;;31.67;4.10;;;;;;;;;;5021316;28;20048;-58
2021/03/17 14:20:10;;;;;;;26.10;3.90;;;;;;;;;;5024018;28;20498;-60
2021/03/17 14:22:38;;;;;;;29.15;4.10;;;;;;;;;;5021200;28;20028;-53
2021/03/17 14:25:06;;;;;;;23.88;4.00;;;;;;;;;;5024848;28;20032;-59
2021/03/17 14:27:33;;;;;;;20.48;3.28;;;;;;;;;;5025250;28;20022;-60
2021/03/17 14:30:01;;;;;;;32.65;4.00;;;;;;;;;;5022801;28;20478;-58
2021/03/17 14:32:28;;;;;;;20.27;3.50;;;;;;;;;;5023932;28;20103;-60
2021/03/17 14:34:55;;;;;;;21.92;3.58;;;;;;;;;;5024927;28;20029;-56
2021/03/17 14:37:22;;;;;;;20.85;3.08;;;;;;;;;;5022373;28;20028;-61
2021/03/17 14:39:49;;;;;;;23.50;3.47;;;;;;;;;;5018181;28;20026;-58
2021/03/17 14:42:16;;;;;;;17.52;2.95;;;;;;;;;;5017551;28;20105;-57
2021/03/17 14:44:43;;;;;;;17.60;3.13;;;;;;;;;;5025215;28;20117;-54